Time;durP1;ratioP1;P1;durP2;ratioP2;P2;SDS_P1;SDS_P2;PMS_P1;PMS_P2;Temp;Humidity;BMP_temperature;BMP_pressure;BME280_temperature;BME280_humidity;BME280_pressure;Samples;Min_cycle;Max_cycle;Signal;HPM_P1;HPM_P2
2021/08/03 00:01:40;;;;;;;5.00;2.30;;;;;;;15.86;67.30;98658.03;5034344;28;20434;-50
2021/08/03 00:04:11;;;;;;;8.05;5.40;;;;;;;15.89;67.22;98652.25;5034263;28;20025;-50
2021/08/03 00:06:43;;;;;;;6.60;2.92;;;;;;;15.85;67.21;98652.97;5049601;28;20025;-51
2021/08/03 00:09:09;;;;;;;17.48;13.93;;;;;;;15.78;67.23;98650.47;5034198;28;20041;-50
2021/08/03 00:11:41;;;;;;;6.43;3.08;;;;;;;15.72;67.62;98638.97;5034140;28;20499;-50
2021/08/03 00:14:07;;;;;;;8.13;4.85;;;;;;;15.69;67.86;98636.75;5034023;28;20087;-50
2021/08/03 00:16:35;;;;;;;4.85;2.17;;;;;;;15.60;67.97;98638.19;5034008;28;20017;-50
2021/08/03 00:19:01;;;;;;;7.07;4.03;;;;;;;15.55;68.16;98640.72;5049022;28;20049;-53
2021/08/03 00:21:28;;;;;;;3.13;2.00;;;;;;;15.52;68.11;98649.94;5032655;28;20411;-53
2021/08/03 00:23:55;;;;;;;10.55;9.20;;;;;;;15.53;68.24;98642.78;5033907;28;20022;-53
2021/08/03 00:26:21;;;;;;;10.23;9.18;;;;;;;15.46;68.28;98639.50;5049137;28;20030;-53
2021/08/03 00:28:49;;;;;;;5.40;3.20;;;;;;;15.41;68.54;98632.22;5032035;28;20025;-52
2021/08/03 00:31:17;;;;;;;8.32;6.20;;;;;;;15.38;68.64;98630.06;5033641;28;20030;-53
2021/08/03 00:33:49;;;;;;;2.85;1.90;;;;;;;15.40;68.84;98627.19;5033725;28;20567;-53
2021/08/03 00:36:16;;;;;;;6.32;4.70;;;;;;;15.28;68.83;98635.13;5033575;28;20399;-53
2021/08/03 00:38:42;;;;;;;4.35;2.25;;;;;;;15.23;69.10;98625.28;5033640;28;20025;-52
2021/08/03 00:41:19;;;;;;;13.95;12.63;;;;;;;15.21;69.19;98632.59;5033485;28;20029;-52
2021/08/03 00:43:45;;;;;;;5.47;4.75;;;;;;;15.19;68.83;98632.03;5033580;28;20064;-52
2021/08/03 00:46:10;;;;;;;2.55;1.50;;;;;;;15.18;68.89;98625.16;5048817;28;20064;-52
2021/08/03 00:48:36;;;;;;;4.43;3.60;;;;;;;15.21;68.71;98623.88;5033456;28;20369;-53
2021/08/03 00:51:02;;;;;;;5.13;1.98;;;;;;;15.25;68.71;98623.19;5032067;28;20414;-53
2021/08/03 00:53:30;;;;;;;5.20;3.95;;;;;;;15.30;68.54;98620.66;5033330;28;20022;-53
2021/08/03 00:55:56;;;;;;;4.75;3.55;;;;;;;15.29;68.26;98623.50;5033137;28;20076;-53
2021/08/03 00:58:21;;;;;;;15.43;14.07;;;;;;;15.24;68.53;98623.41;5033316;28;20022;-53
2021/08/03 01:00:47;;;;;;;3.67;3.30;;;;;;;15.21;68.62;98619.38;5033238;28;20088;-53
2021/08/03 01:03:13;;;;;;;3.60;1.77;;;;;;;15.14;68.67;98622.16;5033126;28;20445;-53
2021/08/03 01:05:49;;;;;;;2.67;1.50;;;;;;;15.12;68.91;98618.94;5033110;28;20021;-53
2021/08/03 01:08:32;;;;;;;27.88;25.40;;;;;;;15.18;68.59;98612.72;5048416;28;20052;-53
2021/08/03 01:11:06;;;;;;;4.93;3.45;;;;;;;15.26;68.41;98606.28;5048313;28;20040;-52
2021/08/03 01:13:52;;;;;;;9.50;4.18;;;;;;;15.22;68.11;98614.91;5048255;28;20033;-52
2021/08/03 01:16:18;;;;;;;7.05;4.65;;;;;;;15.11;68.31;98614.72;5048155;28;20044;-52
2021/08/03 01:19:14;;;;;;;6.43;2.42;;;;;;;15.13;68.57;98612.63;5047981;28;20458;-52
2021/08/03 01:21:44;;;;;;;;;;;;;;;15.26;68.00;98616.84;4995211;28;20061;-52
2021/08/03 01:24:15;;;;;;;5.40;4.13;;;;;;;15.23;67.93;98614.69;5031467;28;19909;-52
2021/08/03 01:26:56;;;;;;;7.57;6.45;;;;;;;15.26;67.98;98614.22;5032698;28;20029;-52
2021/08/03 01:29:25;;;;;;;15.02;10.48;;;;;;;15.43;67.51;98616.13;5047977;28;20053;-53
2021/08/03 01:31:54;;;;;;;18.15;13.82;;;;;;;15.64;67.56;98612.88;5032581;28;20028;-53
2021/08/03 01:34:24;;;;;;;5.32;2.53;;;;;;;16.19;66.56;98622.09;5032585;28;20083;-53
2021/08/03 01:36:55;;;;;;;7.95;3.92;;;;;;;16.76;64.98;98624.63;5032437;28;20504;-52
2021/08/03 01:39:30;;;;;;;15.32;11.07;;;;;;;17.20;63.38;98620.50;5031926;28;20025;-53
2021/08/03 01:41:58;;;;;;;7.70;4.15;;;;;;;17.66;62.11;98624.53;5032423;28;20041;-52
2021/08/03 01:44:25;;;;;;;9.35;3.55;;;;;;;18.10;61.04;98624.50;5032382;28;20036;-51
2021/08/03 01:46:51;;;;;;;8.13;4.97;;;;;;;18.30;59.93;98625.75;5032285;28;20033;-50
2021/08/03 01:49:21;;;;;;;9.60;3.40;;;;;;;18.10;59.69;98629.00;5032334;28;20030;-49
2021/08/03 01:51:49;;;;;;;5.22;4.40;;;;;;;17.68;60.59;98624.28;5032319;28;20025;-50
2021/08/03 01:54:16;;;;;;;15.02;13.50;;;;;;;17.83;60.76;98621.84;5032239;28;20022;-50
2021/08/03 01:56:45;;;;;;;5.68;4.95;;;;;;;17.84;59.63;98617.31;5030775;28;20048;-50
2021/08/03 01:59:12;;;;;;;5.60;3.78;;;;;;;17.34;60.48;98617.25;5032180;28;20028;-50
2021/08/03 02:01:38;;;;;;;10.15;3.10;;;;;;;17.08;61.57;98625.91;5032139;28;20499;-50
2021/08/03 02:04:07;;;;;;;23.33;21.08;;;;;;;17.19;61.97;98617.06;5032076;28;20539;-50
2021/08/03 02:06:35;;;;;;;9.27;3.03;;;;;;;17.49;61.54;98618.50;5032050;28;20025;-50
2021/08/03 02:09:01;;;;;;;10.15;2.40;;;;;;;17.69;60.60;98620.59;5047298;28;20583;-50
2021/08/03 02:11:34;;;;;;;13.65;5.63;;;;;;;17.69;60.34;98613.41;5031988;28;20434;-50
2021/08/03 02:14:00;;;;;;;8.95;4.22;;;;;;;17.63;60.54;98614.41;5031938;28;20026;-50
2021/08/03 02:16:26;;;;;;;10.45;1.88;;;;;;;17.60;60.55;98617.53;5031823;28;20104;-50
2021/08/03 02:18:52;;;;;;;9.05;5.15;;;;;;;17.54;60.71;98618.53;5046773;28;20089;-50
2021/08/03 02:21:23;;;;;;;9.07;3.75;;;;;;;17.64;60.75;98618.66;5031877;28;20025;-50
2021/08/03 02:23:50;;;;;;;19.55;17.60;;;;;;;17.80;60.12;98614.31;5031805;28;20021;-50
2021/08/03 02:26:16;;;;;;;8.02;3.42;;;;;;;17.96;59.65;98613.47;5031771;28;20021;-50
2021/08/03 02:28:42;;;;;;;9.45;4.40;;;;;;;18.05;59.15;98613.84;5031757;28;20060;-50
2021/08/03 02:31:20;;;;;;;4.95;2.33;;;;;;;17.81;58.68;98620.44;5030415;28;20391;-50
2021/08/03 02:33:52;;;;;;;7.15;5.25;;;;;;;17.15;59.80;98621.25;5031770;28;20033;-50
2021/08/03 02:36:20;;;;;;;7.18;2.17;;;;;;;16.71;61.12;98629.06;5031578;28;20064;-50
2021/08/03 02:38:52;;;;;;;13.80;10.85;;;;;;;16.36;61.86;98636.19;5031702;28;20025;-50
2021/08/03 02:41:21;;;;;;;4.13;3.25;;;;;;;16.45;62.63;98631.28;5030406;28;20029;-50
2021/08/03 02:43:48;;;;;;;5.75;3.20;;;;;;;16.80;62.32;98632.09;5031632;28;20029;-50
2021/08/03 02:46:16;;;;;;;10.00;9.10;;;;;;;17.13;61.46;98631.28;5031652;28;20018;-50
2021/08/03 02:48:49;;;;;;;7.22;4.20;;;;;;;17.30;60.78;98626.72;5046860;28;20026;-50
2021/08/03 02:51:18;;;;;;;10.05;6.35;;;;;;;17.42;60.56;98621.31;5032776;28;20155;-50
2021/08/03 02:53:50;;;;;;;6.45;2.30;;;;;;;17.46;60.29;98621.63;5050950;28;20031;-50
2021/08/03 02:56:19;;;;;;;9.80;8.82;;;;;;;17.19;60.05;98619.69;5035454;28;20411;-50
2021/08/03 02:58:51;;;;;;;10.02;6.10;;;;;;;16.64;61.02;98620.44;5035564;28;20041;-50
2021/08/03 03:01:21;;;;;;;4.75;2.17;;;;;;;16.12;62.39;98627.56;5050846;28;20033;-49
2021/08/03 03:03:53;;;;;;;5.85;1.60;;;;;;;15.76;63.42;98632.19;5035501;28;20037;-50
2021/08/03 03:06:22;;;;;;;3.42;2.92;;;;;;;15.48;64.40;98634.75;5035453;28;20104;-53
2021/08/03 03:08:49;;;;;;;4.82;4.32;;;;;;;15.23;65.06;98635.03;5050593;28;20080;-52
2021/08/03 03:11:18;;;;;;;13.77;10.27;;;;;;;15.13;65.44;98632.94;5035200;28;20021;-52
2021/08/03 03:13:52;;;;;;;7.65;3.45;;;;;;;15.18;65.73;98638.38;5033956;28;20104;-53
2021/08/03 03:16:20;;;;;;;8.15;3.85;;;;;;;15.30;66.88;98633.88;5035161;28;20068;-53
2021/08/03 03:18:46;;;;;;;22.85;20.88;;;;;;;15.34;68.05;98632.38;5034143;28;20025;-54
2021/08/03 03:21:19;;;;;;;4.82;2.47;;;;;;;15.11;68.06;98630.56;5033767;28;20067;-52
2021/08/03 03:23:49;;;;;;;3.20;2.65;;;;;;;14.80;68.45;98623.78;5035135;28;20030;-52
2021/08/03 03:26:15;;;;;;;15.20;13.63;;;;;;;14.49;69.27;98630.16;5035040;28;20053;-52
2021/08/03 03:28:43;;;;;;;8.65;5.40;;;;;;;14.35;70.35;98627.69;5050560;28;20021;-52
2021/08/03 03:31:10;;;;;;;11.30;6.82;;;;;;;14.39;70.33;98625.41;5050159;28;20032;-52
2021/08/03 03:33:38;;;;;;;5.80;2.55;;;;;;;14.33;69.99;98618.41;5035099;28;20068;-52
2021/08/03 03:36:07;;;;;;;22.67;16.52;;;;;;;14.27;70.35;98627.22;5034719;28;20187;-52
2021/08/03 03:38:37;;;;;;;10.25;3.33;;;;;;;14.31;70.05;98625.75;5034793;28;20104;-52
2021/08/03 03:41:05;;;;;;;8.73;4.43;;;;;;;14.31;70.21;98625.75;5049992;28;20033;-52
2021/08/03 03:43:31;;;;;;;14.18;12.73;;;;;;;14.28;69.85;98619.06;5034650;28;20095;-52
2021/08/03 03:46:11;;;;;;;5.95;3.13;;;;;;;14.17;70.50;98619.84;5034623;28;20021;-52
2021/08/03 03:48:47;;;;;;;21.05;18.90;;;;;;;14.13;70.45;98619.50;5034684;28;20029;-52
2021/08/03 03:51:17;;;;;;;5.68;4.97;;;;;;;14.11;70.58;98618.91;5033281;28;20025;-52
2021/08/03 03:53:48;;;;;;;8.13;7.32;;;;;;;14.18;70.57;98622.28;5049842;28;20037;-52
2021/08/03 03:56:19;;;;;;;8.30;4.57;;;;;;;14.26;69.93;98622.97;5033149;28;20033;-52
2021/08/03 03:58:54;;;;;;;16.75;12.52;;;;;;;14.28;70.30;98629.63;5034391;28;20025;-51
2021/08/03 04:01:25;;;;;;;16.83;7.05;;;;;;;14.31;69.96;98628.38;5034436;28;20025;-52
2021/08/03 04:03:55;;;;;;;7.10;2.45;;;;;;;14.35;70.07;98629.53;5033484;28;20119;-52
2021/08/03 04:06:25;;;;;;;8.00;3.47;;;;;;;14.34;70.07;98631.34;5049562;28;20024;-52
2021/08/03 04:08:51;;;;;;;6.10;3.08;;;;;;;14.33;69.91;98628.97;5034222;28;20553;-52
2021/08/03 04:11:17;;;;;;;12.38;4.97;;;;;;;14.39;70.06;98625.41;5049785;28;20128;-52
2021/08/03 04:13:44;;;;;;;3.97;2.90;;;;;;;14.43;69.91;98634.50;5034082;28;20053;-52
2021/08/03 04:16:10;;;;;;;18.08;14.45;;;;;;;14.45;69.70;98636.91;5033993;28;20436;-52
2021/08/03 04:18:36;;;;;;;79.40;61.65;;;;;;;14.50;69.77;98637.81;5034011;28;20510;-52
2021/08/03 04:21:02;;;;;;;17.17;14.98;;;;;;;14.50;69.65;98629.09;5033782;28;20045;-52
2021/08/03 04:23:28;;;;;;;39.30;35.15;;;;;;;14.44;69.67;98638.72;5033984;28;20018;-52
2021/08/03 04:25:54;;;;;;;11.93;9.98;;;;;;;14.40;69.86;98642.84;5033860;28;20040;-52
2021/08/03 04:28:19;;;;;;;8.77;6.32;;;;;;;14.41;69.71;98647.13;5033824;28;20040;-52
2021/08/03 04:30:46;;;;;;;8.75;6.68;;;;;;;14.46;69.74;98654.34;5033811;28;20021;-52
2021/08/03 04:33:12;;;;;;;9.73;5.70;;;;;;;14.50;69.46;98651.03;5033735;28;20036;-52
2021/08/03 04:35:37;;;;;;;11.65;5.43;;;;;;;14.52;69.59;98648.16;5032352;28;20029;-52
2021/08/03 04:38:03;;;;;;;4.28;2.33;;;;;;;14.51;69.51;98652.66;5033613;28;20018;-52
2021/08/03 04:40:29;;;;;;;7.80;5.93;;;;;;;14.55;69.17;98651.16;5033623;28;20064;-52
2021/08/03 04:42:55;;;;;;;3.78;2.28;;;;;;;14.56;69.16;98652.78;5032296;28;20467;-52
2021/08/03 04:45:21;;;;;;;9.15;2.70;;;;;;;14.56;69.06;98658.06;5033554;28;20056;-52
2021/08/03 04:47:49;;;;;;;8.13;2.70;;;;;;;14.70;69.13;98642.03;5033459;28;20022;-52
2021/08/03 04:50:20;;;;;;;10.80;9.80;;;;;;;14.87;68.50;98648.25;5033315;28;20064;-52
2021/08/03 04:52:46;;;;;;;8.95;2.90;;;;;;;15.07;67.88;98639.16;5033390;28;20037;-52
2021/08/03 04:55:12;;;;;;;6.90;4.30;;;;;;;15.35;67.26;98647.22;5032022;28;20580;-52
2021/08/03 04:57:38;;;;;;;16.80;13.50;;;;;;;15.61;66.76;98645.06;5031994;28;20061;-52
2021/08/03 05:00:06;;;;;;;8.05;4.65;;;;;;;15.84;65.65;98646.88;5033235;28;20470;-52
2021/08/03 05:02:32;;;;;;;7.97;6.45;;;;;;;15.91;65.24;98641.44;5048538;28;20044;-53
2021/08/03 05:04:57;;;;;;;6.47;2.10;;;;;;;15.81;64.99;98643.91;5033418;28;20026;-52
2021/08/03 05:07:23;;;;;;;4.90;2.60;;;;;;;15.65;65.16;98637.47;5033139;28;20391;-52
2021/08/03 05:09:49;;;;;;;6.60;4.25;;;;;;;15.51;65.71;98642.22;5033037;28;20026;-52
2021/08/03 05:12:14;;;;;;;10.90;9.90;;;;;;;15.47;66.01;98644.53;5032977;28;20025;-52
2021/08/03 05:14:40;;;;;;;9.15;4.68;;;;;;;15.40;66.41;98637.78;5048231;28;20450;-52
2021/08/03 05:17:06;;;;;;;12.63;6.78;;;;;;;15.34;66.51;98642.94;5031496;28;20017;-52
2021/08/03 05:19:31;;;;;;;14.85;9.23;;;;;;;15.37;66.81;98645.13;5032628;28;20099;-52
2021/08/03 05:21:57;;;;;;;47.67;43.20;;;;;;;15.58;66.31;98641.06;5032751;28;20022;-52
2021/08/03 05:24:25;;;;;;;11.20;5.50;;;;;;;15.59;66.07;98641.84;5031471;28;20033;-52
2021/08/03 05:27:00;;;;;;;16.40;14.77;;;;;;;15.55;66.15;98640.72;5032671;28;20519;-52
2021/08/03 05:29:27;;;;;;;22.23;17.42;;;;;;;15.48;66.64;98635.56;5032832;28;20141;-52
2021/08/03 05:31:53;;;;;;;7.80;7.03;;;;;;;15.46;66.56;98632.34;5032658;28;20022;-51
2021/08/03 05:34:19;;;;;;;49.63;45.17;;;;;;;15.44;66.74;98629.13;5031248;28;20514;-52
2021/08/03 05:36:47;;;;;;;9.13;3.88;;;;;;;15.48;66.82;98632.13;5047736;28;20530;-52
2021/08/03 05:39:14;;;;;;;13.43;10.63;;;;;;;15.60;66.23;98626.81;5032554;28;20377;-52
2021/08/03 05:41:39;;;;;;;9.40;5.18;;;;;;;15.62;66.20;98620.25;5032454;28;20014;-52
2021/08/03 05:44:05;;;;;;;3.70;3.00;;;;;;;15.67;66.15;98622.16;5047713;28;20447;-52
2021/08/03 05:46:31;;;;;;;11.25;7.78;;;;;;;15.68;65.94;98619.28;5032364;28;20040;-52
2021/08/03 05:48:57;;;;;;;10.02;7.43;;;;;;;15.74;65.98;98620.25;5032651;28;20038;-52
2021/08/03 05:51:23;;;;;;;9.15;7.63;;;;;;;15.88;65.63;98618.91;5032275;28;20510;-52
2021/08/03 05:53:48;;;;;;;17.65;15.60;;;;;;;16.07;65.48;98611.56;5032237;28;20494;-52
2021/08/03 05:56:14;;;;;;;14.82;12.85;;;;;;;16.37;64.66;98616.59;5032135;28;20083;-52
2021/08/03 05:58:40;;;;;;;4.50;3.25;;;;;;;16.43;64.17;98617.47;5032160;28;20093;-52
2021/08/03 06:01:05;;;;;;;5.03;2.95;;;;;;;16.46;63.83;98614.38;5032103;28;20021;-52
2021/08/03 06:03:31;;;;;;;8.20;4.32;;;;;;;16.57;63.77;98605.53;5032125;28;20029;-52
2021/08/03 06:05:57;;;;;;;8.95;5.25;;;;;;;16.90;63.16;98603.09;5032069;28;20083;-52
2021/08/03 06:08:25;;;;;;;12.63;4.15;;;;;;;17.25;61.97;98596.72;5032083;28;20018;-53
2021/08/03 06:10:52;;;;;;;12.35;3.80;;;;;;;17.50;60.76;98597.00;5032001;28;20021;-50
2021/08/03 06:13:23;;;;;;;11.65;6.72;;;;;;;17.69;60.23;98594.84;5032005;28;20014;-49
2021/08/03 06:15:50;;;;;;;13.15;3.08;;;;;;;17.95;59.63;98600.47;5047231;28;20384;-50
2021/08/03 06:18:28;;;;;;;8.98;2.13;;;;;;;18.23;58.81;98604.69;5031801;28;20109;-50
2021/08/03 06:20:55;;;;;;;20.63;7.75;;;;;;;18.25;58.70;98607.91;5031728;28;20044;-50
2021/08/03 06:23:23;;;;;;;16.50;5.35;;;;;;;18.50;58.04;98619.81;5031906;28;20032;-50
2021/08/03 06:25:52;;;;;;;17.35;7.70;;;;;;;18.78;57.90;98624.00;5029994;28;20033;-49
2021/08/03 06:28:22;;;;;;;17.98;7.70;;;;;;;19.55;56.42;98629.78;5031816;28;20111;-49
2021/08/03 06:30:48;;;;;;;16.75;4.47;;;;;;;20.03;55.30;98633.13;5031755;28;20048;-50
2021/08/03 06:33:19;;;;;;;9.30;2.80;;;;;;;20.27;54.76;98635.31;5031799;28;20033;-50
2021/08/03 06:35:46;;;;;;;9.18;3.08;;;;;;;20.84;53.30;98644.16;5031751;28;20033;-50
2021/08/03 06:38:12;;;;;;;12.05;3.28;;;;;;;21.73;51.59;98644.44;5046961;28;20028;-50
2021/08/03 06:40:46;;;;;;;6.15;2.92;;;;;;;23.01;49.35;98653.47;5046966;28;20021;-50
2021/08/03 06:43:17;;;;;;;16.00;3.67;;;;;;;23.93;47.11;98661.31;5032018;28;20037;-50
2021/08/03 06:45:48;;;;;;;3.13;1.90;;;;;;;24.10;46.02;98668.84;5031692;28;20041;-50
2021/08/03 06:48:30;;;;;;;11.45;3.13;;;;;;;23.93;46.06;98669.34;5031696;28;20033;-50
2021/08/03 06:51:02;;;;;;;8.50;2.17;;;;;;;23.75;46.67;98675.44;5031630;28;20549;-50
2021/08/03 06:53:29;;;;;;;5.45;1.65;;;;;;;23.91;46.00;98674.19;5031631;28;20030;-50
2021/08/03 06:56:01;;;;;;;10.75;2.72;;;;;;;23.92;46.23;98672.31;5031526;28;20403;-50
2021/08/03 06:58:47;;;;;;;10.80;2.22;;;;;;;23.82;46.22;98680.47;5030179;28;20041;-50
2021/08/03 07:01:23;;;;;;;40.33;12.90;;;;;;;23.13;47.07;98678.00;5046814;28;20040;-50
2021/08/03 07:03:57;;;;;;;10.25;2.55;;;;;;;22.70;48.27;98677.84;5046702;28;20041;-50
2021/08/03 07:06:24;;;;;;;14.68;6.47;;;;;;;22.46;48.46;98667.84;5031490;28;20108;-50
2021/08/03 07:08:52;;;;;;;17.80;9.57;;;;;;;22.53;49.19;98662.97;5031414;28;20099;-50
2021/08/03 07:11:20;;;;;;;9.48;2.92;;;;;;;23.00;48.40;98668.75;5031312;28;20500;-50
2021/08/03 07:13:48;;;;;;;17.42;4.55;;;;;;;23.22;47.79;98670.97;5031395;28;20391;-50
2021/08/03 07:16:14;;;;;;;7.28;2.95;;;;;;;23.86;46.75;98665.41;5031321;28;20076;-50
2021/08/03 07:18:45;;;;;;;17.05;10.40;;;;;;;24.49;44.93;98669.63;5030015;28;20022;-50
2021/08/03 07:21:11;;;;;;;4.90;2.03;;;;;;;25.27;43.73;98664.59;5031391;28;20042;-50
2021/08/03 07:23:37;;;;;;;13.63;2.28;;;;;;;26.21;41.71;98663.19;5031226;28;20041;-51
2021/08/03 07:26:03;;;;;;;5.40;2.83;;;;;;;26.36;40.95;98664.75;5031261;28;20559;-50
2021/08/03 07:28:29;;;;;;;14.25;7.43;;;;;;;26.02;41.57;98657.97;5029958;28;20028;-50
2021/08/03 07:30:55;;;;;;;11.32;4.78;;;;;;;25.74;41.74;98657.22;5031132;28;20030;-50
2021/08/03 07:33:21;;;;;;;9.40;2.80;;;;;;;25.79;41.88;98650.94;5031218;28;20024;-51
2021/08/03 07:35:47;;;;;;;5.85;3.67;;;;;;;25.76;41.50;98656.91;5031191;28;20025;-51
2021/08/03 07:38:13;;;;;;;13.23;5.65;;;;;;;25.68;41.58;98653.81;5032335;28;20025;-51
2021/08/03 07:40:41;;;;;;;13.90;9.23;;;;;;;25.64;41.78;98652.84;5033390;28;20033;-51
2021/08/03 07:43:06;;;;;;;26.33;16.05;;;;;;;25.34;42.17;98661.53;5049967;28;20076;-51
2021/08/03 07:45:33;;;;;;;6.78;2.65;;;;;;;25.30;42.10;98648.66;5049968;28;20503;-51
2021/08/03 07:47:59;;;;;;;8.40;2.30;;;;;;;25.26;41.95;98654.94;5034652;28;20025;-51
2021/08/03 07:50:27;;;;;;;5.53;2.00;;;;;;;25.23;41.87;98642.91;5034558;28;20403;-50
2021/08/03 07:52:54;;;;;;;11.75;4.90;;;;;;;25.20;42.23;98650.72;5034561;28;20021;-51
2021/08/03 07:55:20;;;;;;;7.50;3.60;;;;;;;25.28;41.86;98648.16;5049841;28;20088;-50
2021/08/03 07:57:46;;;;;;;17.35;14.05;;;;;;;25.30;41.93;98648.66;5049665;28;20025;-51
2021/08/03 08:00:12;;;;;;;14.13;2.30;;;;;;;25.34;41.83;98642.72;5034428;28;20044;-50
2021/08/03 08:02:38;;;;;;;17.08;3.00;;;;;;;25.34;42.02;98637.34;5034338;28;20079;-51
2021/08/03 08:05:04;;;;;;;9.70;2.65;;;;;;;25.81;40.89;98640.66;5034331;28;20061;-50
2021/08/03 08:07:29;;;;;;;20.55;12.27;;;;;;;26.13;40.48;98637.03;5034283;28;20494;-50
2021/08/03 08:09:55;;;;;;;15.82;3.45;;;;;;;26.24;39.86;98632.19;5049502;28;20055;-51
2021/08/03 08:12:21;;;;;;;11.80;1.98;;;;;;;26.25;40.00;98631.09;5034148;28;20497;-50
2021/08/03 08:14:46;;;;;;;19.33;2.55;;;;;;;26.49;39.58;98639.66;5034258;28;20490;-51
2021/08/03 08:17:12;;;;;;;10.55;2.38;;;;;;;26.53;39.35;98634.47;5049311;28;20033;-51
2021/08/03 08:19:38;;;;;;;10.27;2.13;;;;;;;26.57;39.30;98631.97;5033773;28;20045;-50
2021/08/03 08:22:04;;;;;;;8.35;2.22;;;;;;;26.63;39.07;98636.94;5033997;28;20031;-51
2021/08/03 08:24:29;;;;;;;8.90;2.75;;;;;;;26.84;38.91;98639.09;5032665;28;20092;-51
2021/08/03 08:26:55;;;;;;;8.68;2.28;;;;;;;26.97;39.35;98648.22;5032596;28;20038;-50
2021/08/03 08:29:21;;;;;;;5.80;2.65;;;;;;;26.79;39.78;98647.31;5032601;28;20075;-51
2021/08/03 08:31:47;;;;;;;4.72;1.55;;;;;;;26.81;40.25;98645.91;5034085;28;20079;-50
2021/08/03 08:34:13;;;;;;;9.15;2.30;;;;;;;26.93;39.96;98644.56;5033807;28;20049;-51
2021/08/03 08:36:39;;;;;;;12.45;3.00;;;;;;;26.97;39.83;98646.31;5033651;28;20026;-51
2021/08/03 08:39:06;;;;;;;10.75;3.47;;;;;;;26.95;39.92;98643.13;5032409;28;20056;-51
2021/08/03 08:41:37;;;;;;;5.35;1.67;;;;;;;27.20;39.43;98638.94;5032272;28;20026;-51
2021/08/03 08:44:04;;;;;;;7.13;1.80;;;;;;;27.44;38.92;98638.56;5033538;28;20021;-51
2021/08/03 08:46:38;;;;;;;6.00;1.40;;;;;;;27.74;38.20;98632.63;5033449;28;20143;-51
2021/08/03 08:49:07;;;;;;;9.20;2.22;;;;;;;28.02;37.90;98644.75;5031856;28;20026;-51
2021/08/03 08:51:33;;;;;;;7.68;1.80;;;;;;;28.41;37.51;98648.41;5033452;28;20033;-51
2021/08/03 08:54:00;;;;;;;7.72;1.77;;;;;;;28.86;36.74;98639.91;5033438;28;20028;-51
2021/08/03 08:56:29;;;;;;;12.90;2.25;;;;;;;29.27;36.26;98643.91;5033206;28;20069;-51
2021/08/03 08:58:55;;;;;;;23.48;4.95;;;;;;;29.44;36.00;98647.66;5033293;28;20403;-50
2021/08/03 09:01:21;;;;;;;19.50;3.28;;;;;;;29.26;36.36;98652.34;5033241;28;20033;-50
2021/08/03 09:03:47;;;;;;;16.02;2.40;;;;;;;29.15;36.86;98649.19;5033220;28;20032;-51
2021/08/03 09:06:19;;;;;;;11.45;1.65;;;;;;;29.23;36.58;98642.97;5033163;28;20034;-51
2021/08/03 09:08:46;;;;;;;19.02;3.05;;;;;;;29.58;35.80;98641.97;5033158;28;20040;-51
2021/08/03 09:11:14;;;;;;;23.20;4.35;;;;;;;29.97;35.33;98631.91;5033052;28;20029;-50
2021/08/03 09:13:58;;;;;;;11.68;2.90;;;;;;;30.02;34.93;98635.19;5033023;28;20014;-51
2021/08/03 09:16:42;;;;;;;12.70;2.17;;;;;;;29.87;35.00;98628.44;5032943;28;20110;-51
2021/08/03 09:19:27;;;;;;;14.45;2.58;;;;;;;29.94;35.48;98632.53;5033224;28;20179;-50
2021/08/03 09:22:29;;;;;;;25.27;3.83;;;;;;;30.80;34.58;98625.53;5031574;28;20021;-50
2021/08/03 09:25:15;;;;;;;38.58;4.57;;;;;;;31.59;33.24;98617.25;4971788;28;20483;-51
2021/08/03 09:27:44;;;;;;;6.22;2.15;;;;;;;32.16;31.59;98609.22;4955549;28;20548;-51
2021/08/03 09:30:19;;;;;;;8.77;1.95;;;;;;;32.41;31.26;98615.31;4971763;28;20030;-51
2021/08/03 09:32:47;;;;;;;25.45;5.82;;;;;;;32.79;31.16;98612.06;4955449;28;20121;-51
2021/08/03 09:35:16;;;;;;;12.18;2.75;;;;;;;32.97;29.96;98611.72;4955389;28;20121;-51
2021/08/03 09:37:43;;;;;;;6.38;1.80;;;;;;;33.53;29.09;98614.19;4955318;28;20058;-51
2021/08/03 09:40:24;;;;;;;11.70;2.38;;;;;;;34.50;28.44;98610.72;4971569;28;20465;-51
2021/08/03 09:43:05;;;;;;;9.18;2.55;;;;;;;35.35;27.38;98596.16;4971562;28;20033;-49
2021/08/03 09:45:36;;;;;;;6.28;1.50;;;;;;;35.68;26.78;98600.13;4971384;28;20042;-49
2021/08/03 09:48:19;;;;;;;8.25;2.13;;;;;;;36.47;26.19;98593.63;4971501;28;20054;-51
2021/08/03 09:50:59;;;;;;;3.10;1.60;;;;;;;36.83;24.75;98601.41;4971432;28;20498;-51
2021/08/03 09:53:48;;;;;;;6.18;1.73;;;;;;;36.35;25.34;98602.91;4971398;28;20638;-51
2021/08/03 09:56:17;;;;;;;5.78;1.48;;;;;;;35.82;25.15;98596.78;4971286;28;20062;-52
2021/08/03 09:58:51;;;;;;;5.85;1.48;;;;;;;34.84;26.15;98600.03;4997655;28;20064;-51
2021/08/03 10:01:27;;;;;;;9.80;2.30;;;;;;;33.91;27.77;98598.31;5031471;28;20079;-51
2021/08/03 10:03:55;;;;;;;9.80;3.20;;;;;;;33.50;28.16;98605.94;5032143;28;20032;-49
2021/08/03 10:06:21;;;;;;;6.22;1.50;;;;;;;33.03;28.31;98602.16;5047310;28;20102;-51
2021/08/03 10:08:53;;;;;;;8.05;2.80;;;;;;;32.62;29.34;98601.53;5047371;28;20032;-50
2021/08/03 10:11:19;;;;;;;7.90;1.58;;;;;;;32.28;29.79;98598.28;5032017;28;20030;-51
2021/08/03 10:13:46;;;;;;;5.07;2.00;;;;;;;31.71;30.55;98604.78;5032034;28;20025;-50
2021/08/03 10:16:13;;;;;;;7.25;5.03;;;;;;;31.23;31.10;98609.91;5030623;28;20495;-51
2021/08/03 10:18:41;;;;;;;3.83;1.75;;;;;;;30.73;32.11;98605.56;5031873;28;20171;-51
2021/08/03 10:21:30;;;;;;;3.53;1.33;;;;;;;30.21;32.76;98604.16;5031727;28;20069;-51
2021/08/03 10:24:01;;;;;;;8.65;2.22;;;;;;;30.23;32.85;98599.19;5031956;28;20091;-51
2021/08/03 10:26:27;;;;;;;5.68;1.48;;;;;;;30.41;33.09;98608.75;5031869;28;20115;-51
2021/08/03 10:29:21;;;;;;;7.93;1.70;;;;;;;30.63;32.84;98607.56;5031840;28;20061;-51
2021/08/03 10:31:47;;;;;;;5.38;1.50;;;;;;;30.97;32.22;98608.34;5030481;28;20029;-51
2021/08/03 10:34:42;;;;;;;8.75;1.70;;;;;;;31.74;31.38;98604.91;5031788;28;20602;-51
2021/08/03 10:37:09;;;;;;;8.80;1.80;;;;;;;32.27;30.06;98606.78;5046797;28;20407;-51
2021/08/03 10:39:56;;;;;;;6.78;1.60;;;;;;;32.64;30.28;98604.69;5031720;28;20056;-51
2021/08/03 10:42:23;;;;;;;5.50;2.00;;;;;;;32.72;29.90;98594.78;5031726;28;20399;-51
2021/08/03 10:44:57;;;;;;;2.83;1.40;;;;;;;32.55;30.48;98599.41;5031721;28;20057;-51
2021/08/03 10:47:36;;;;;;;2.13;1.33;;;;;;;32.44;30.50;98599.09;5046906;28;20380;-51
2021/08/03 10:50:27;;;;;;;6.47;1.90;;;;;;;32.25;30.69;98594.31;5031555;28;20030;-51
2021/08/03 10:52:54;;;;;;;6.00;2.00;;;;;;;32.01;30.28;98589.00;5047019;28;20403;-50
2021/08/03 10:55:43;;;;;;;2.55;1.38;;;;;;;31.87;30.64;98589.34;5031550;28;20049;-51
2021/08/03 10:58:09;;;;;;;4.60;1.42;;;;;;;31.87;30.98;98588.56;5031570;28;20033;-51
2021/08/03 11:00:52;;;;;;;2.25;1.35;;;;;;;32.23;31.26;98590.38;5031440;28;20562;-51
2021/08/03 11:03:35;;;;;;;2.33;1.20;;;;;;;33.07;29.74;98578.53;5031512;28;20068;-51
2021/08/03 11:06:04;;;;;;;6.82;2.58;;;;;;;33.65;29.00;98588.03;5031567;28;20026;-51
2021/08/03 11:08:32;;;;;;;3.65;1.58;;;;;;;34.14;28.03;98574.66;5031447;28;20509;-49
2021/08/03 11:11:07;;;;;;;12.27;4.18;;;;;;;34.52;28.28;98575.72;5031410;28;20026;-49
2021/08/03 11:13:35;;;;;;;5.53;1.25;;;;;;;35.05;26.72;98569.59;5034596;28;20562;-49
2021/08/03 11:16:02;;;;;;;4.32;1.55;;;;;;;35.57;25.43;98569.94;5035226;28;20069;-49
2021/08/03 11:18:44;;;;;;;6.00;2.28;;;;;;;36.69;24.09;98567.31;5035126;28;20043;-51
2021/08/03 11:21:14;;;;;;;12.10;3.72;;;;;;;37.38;23.30;98574.03;5034915;28;20045;-52
2021/08/03 11:24:09;;;;;;;8.27;2.92;;;;;;;37.28;23.04;98572.03;5035141;28;20361;-51
2021/08/03 11:26:41;;;;;;;8.63;1.60;;;;;;;36.88;22.84;98579.16;5035088;28;20032;-51
2021/08/03 11:29:16;;;;;;;11.07;2.00;;;;;;;36.41;22.81;98565.06;5050306;28;20037;-51
2021/08/03 11:31:43;;;;;;;18.17;2.25;;;;;;;36.03;22.99;98575.19;5035037;28;20112;-51
2021/08/03 11:34:12;;;;;;;10.27;2.13;;;;;;;35.30;24.09;98561.81;5034907;28;20026;-51
2021/08/03 11:36:52;;;;;;;13.43;3.83;;;;;;;34.84;24.68;98561.09;5034756;28;20076;-51
2021/08/03 11:39:26;;;;;;;10.50;2.30;;;;;;;34.60;24.82;98568.47;5034860;28;20033;-51
2021/08/03 11:41:54;;;;;;;10.95;2.67;;;;;;;34.47;25.76;98565.13;5034764;28;20030;-51